Time;durP1;ratioP1;P1;durP2;ratioP2;P2;SDS_P1;SDS_P2;PMS_P1;PMS_P2;Temp;Humidity;BMP_temperature;BMP_pressure;BME280_temperature;BME280_humidity;BME280_pressure;Samples;Min_cycle;Max_cycle;Signal;HPM_P1;HPM_P2
2023/04/30 00:02:07;;;;;;;18.08;8.38;;;;;;;;;;5007429;28;20064;-75
2023/04/30 00:04:34;;;;;;;20.52;9.27;;;;;;;;;;5009680;28;20397;-77
2023/04/30 00:07:00;;;;;;;18.20;9.80;;;;;;;;;;5007300;28;20061;-77
2023/04/30 00:09:26;;;;;;;20.75;9.57;;;;;;;;;;5005591;28;20599;-77
2023/04/30 00:11:53;;;;;;;16.98;9.70;;;;;;;;;;5006994;28;20054;-75
2023/04/30 00:14:19;;;;;;;17.52;9.18;;;;;;;;;;5007030;28;20050;-76
2023/04/30 00:16:46;;;;;;;20.05;9.95;;;;;;;;;;5004051;28;20057;-75
2023/04/30 00:19:12;;;;;;;19.60;9.80;;;;;;;;;;5004999;28;20058;-75
2023/04/30 00:21:38;;;;;;;18.40;9.00;;;;;;;;;;5008809;28;20066;-77
2023/04/30 00:24:05;;;;;;;15.93;8.23;;;;;;;;;;5006762;28;20146;-76
2023/04/30 00:26:31;;;;;;;12.52;7.68;;;;;;;;;;5005280;28;20062;-76
2023/04/30 00:28:58;;;;;;;14.82;7.20;;;;;;;;;;5006830;28;20054;-75
2023/04/30 00:31:24;;;;;;;13.27;7.15;;;;;;;;;;5004532;28;20058;-76
2023/04/30 00:33:50;;;;;;;15.55;7.00;;;;;;;;;;5007504;28;20054;-76
2023/04/30 00:36:17;;;;;;;12.02;6.53;;;;;;;;;;5006335;28;20077;-75
2023/04/30 00:38:43;;;;;;;11.65;6.82;;;;;;;;;;5005330;28;20370;-74
2023/04/30 00:41:09;;;;;;;11.98;6.80;;;;;;;;;;5007456;28;20145;-76
2023/04/30 00:43:36;;;;;;;12.40;6.65;;;;;;;;;;5005043;28;20054;-76
2023/04/30 00:46:04;;;;;;;12.43;7.32;;;;;;;;;;5005681;28;20057;-76
2023/04/30 00:48:30;;;;;;;14.30;7.18;;;;;;;;;;5005071;28;20058;-77
2023/04/30 00:50:56;;;;;;;16.63;7.40;;;;;;;;;;5003559;28;20058;-76
2023/04/30 00:53:23;;;;;;;15.82;7.80;;;;;;;;;;5005184;28;20585;-75
2023/04/30 00:55:50;;;;;;;17.50;8.25;;;;;;;;;;5005209;28;20058;-75
2023/04/30 00:58:17;;;;;;;12.70;8.45;;;;;;;;;;5004627;28;20623;-77
2023/04/30 01:00:45;;;;;;;14.00;7.80;;;;;;;;;;5003481;28;20058;-76
2023/04/30 01:03:13;;;;;;;15.40;7.15;;;;;;;;;;5004359;28;20091;-76
2023/04/30 01:05:39;;;;;;;13.75;6.65;;;;;;;;;;5007608;28;20050;-76
2023/04/30 01:08:06;;;;;;;11.85;5.60;;;;;;;;;;5005571;28;20062;-76
2023/04/30 01:10:37;;;;;;;10.50;6.10;;;;;;;;;;5004907;28;20058;-77
2023/04/30 01:13:06;;;;;;;11.52;6.15;;;;;;;;;;5004268;28;20517;-77
2023/04/30 01:15:39;;;;;;;11.25;5.82;;;;;;;;;;5005421;28;20620;-75
2023/04/30 01:18:14;;;;;;;12.85;6.18;;;;;;;;;;5004694;28;20101;-75
2023/04/30 01:20:47;;;;;;;13.80;6.30;;;;;;;;;;5005717;28;20054;-76
2023/04/30 01:23:36;;;;;;;12.18;6.45;;;;;;;;;;5005652;28;20800;-74
2023/04/30 01:26:08;;;;;;;13.13;6.55;;;;;;;;;;5004245;28;20061;-77
2023/04/30 01:28:35;;;;;;;12.25;6.63;;;;;;;;;;5007382;28;20064;-75
2023/04/30 01:31:01;;;;;;;12.43;6.55;;;;;;;;;;5005364;28;20086;-76
2023/04/30 01:33:28;;;;;;;11.55;6.40;;;;;;;;;;5004575;28;20439;-75
2023/04/30 01:36:08;;;;;;;14.18;7.35;;;;;;;;;;5005644;28;20059;-76
2023/04/30 01:38:52;;;;;;;17.92;7.78;;;;;;;;;;5003722;28;20061;-77
2023/04/30 01:41:30;;;;;;;15.45;8.05;;;;;;;;;;5003397;28;20859;-77
2023/04/30 01:44:12;;;;;;;15.05;7.75;;;;;;;;;;5006218;28;20097;-76
2023/04/30 01:46:39;;;;;;;16.15;8.73;;;;;;;;;;5004422;28;20181;-77
2023/04/30 01:49:18;;;;;;;15.90;8.48;;;;;;;;;;5004231;28;20587;-77
2023/04/30 01:51:46;;;;;;;16.20;8.45;;;;;;;;;;5019157;28;20057;-76
2023/04/30 01:54:31;;;;;;;21.30;9.82;;;;;;;;;;5007263;28;20055;-76
2023/04/30 01:57:03;;;;;;;17.08;8.90;;;;;;;;;;5006053;28;20054;-75
2023/04/30 01:59:30;;;;;;;18.58;9.40;;;;;;;;;;5003439;28;20058;-75
2023/04/30 02:01:58;;;;;;;18.17;9.15;;;;;;;;;;5004256;28;20916;-77
2023/04/30 02:04:24;;;;;;;18.05;9.48;;;;;;;;;;5007219;28;21299;-77
2023/04/30 02:06:51;;;;;;;18.55;9.27;;;;;;;;;;5004983;28;20133;-75
2023/04/30 02:09:17;;;;;;;18.52;9.95;;;;;;;;;;5004585;28;20073;-77
2023/04/30 02:11:44;;;;;;;17.33;8.68;;;;;;;;;;5002119;28;20714;-77
2023/04/30 02:14:10;;;;;;;18.83;9.02;;;;;;;;;;5004480;28;20065;-76
2023/04/30 02:16:36;;;;;;;14.18;6.35;;;;;;;;;;5005881;28;20062;-75
2023/04/30 02:19:03;;;;;;;15.02;7.28;;;;;;;;;;5006797;28;20473;-76
2023/04/30 02:21:30;;;;;;;15.60;7.15;;;;;;;;;;5004388;28;20059;-76
2023/04/30 02:23:56;;;;;;;10.88;6.47;;;;;;;;;;5005875;28;20081;-77
2023/04/30 02:26:23;;;;;;;11.30;6.30;;;;;;;;;;5004655;28;20599;-75
2023/04/30 02:28:49;;;;;;;12.52;6.28;;;;;;;;;;5003723;28;20097;-75
2023/04/30 02:31:15;;;;;;;11.43;6.47;;;;;;;;;;5004501;28;20057;-75
2023/04/30 02:33:42;;;;;;;11.15;6.25;;;;;;;;;;5005087;28;20058;-77
2023/04/30 02:36:08;;;;;;;10.98;6.03;;;;;;;;;;5005760;28;20055;-76
2023/04/30 02:38:34;;;;;;;8.70;5.63;;;;;;;;;;5006333;28;20052;-76
2023/04/30 02:41:02;;;;;;;9.10;5.00;;;;;;;;;;5007074;28;20060;-76
2023/04/30 02:43:28;;;;;;;11.43;5.03;;;;;;;;;;5004871;28;20065;-76
2023/04/30 02:45:57;;;;;;;10.75;4.85;;;;;;;;;;5005139;28;20062;-76
2023/04/30 02:48:24;;;;;;;9.82;5.03;;;;;;;;;;5007393;28;20129;-75
2023/04/30 02:50:50;;;;;;;11.73;5.00;;;;;;;;;;5006130;28;20142;-75
2023/04/30 02:53:17;;;;;;;9.05;4.82;;;;;;;;;;5011442;28;20184;-77
2023/04/30 02:55:43;;;;;;;11.68;5.28;;;;;;;;;;5008692;28;21217;-76
2023/04/30 02:58:10;;;;;;;11.45;4.95;;;;;;;;;;5025855;28;20074;-77
2023/04/30 03:00:36;;;;;;;10.52;5.85;;;;;;;;;;5012692;28;20054;-77
2023/04/30 03:03:05;;;;;;;14.98;6.05;;;;;;;;;;5013229;28;20619;-77
2023/04/30 03:05:31;;;;;;;12.77;6.15;;;;;;;;;;5016327;28;20046;-77
2023/04/30 03:07:58;;;;;;;13.90;6.53;;;;;;;;;;5009694;28;20076;-76
2023/04/30 03:10:24;;;;;;;12.10;6.57;;;;;;;;;;5010887;28;20054;-77
2023/04/30 03:12:50;;;;;;;12.45;6.25;;;;;;;;;;5010691;28;20150;-76
2023/04/30 03:15:17;;;;;;;11.63;6.43;;;;;;;;;;5009414;28;20130;-77
2023/04/30 03:17:44;;;;;;;13.77;6.78;;;;;;;;;;5011111;28;20057;-76
2023/04/30 03:20:13;;;;;;;14.02;6.53;;;;;;;;;;5010134;28;20050;-76
2023/04/30 03:22:39;;;;;;;12.50;6.78;;;;;;;;;;5011268;28;20057;-76
2023/04/30 03:25:06;;;;;;;13.38;6.80;;;;;;;;;;5008619;28;20062;-75
2023/04/30 03:27:32;;;;;;;15.63;6.70;;;;;;;;;;5008150;28;20054;-75
2023/04/30 03:29:58;;;;;;;12.23;6.38;;;;;;;;;;5006894;28;20046;-77
2023/04/30 03:32:25;;;;;;;15.80;6.75;;;;;;;;;;5010154;28;20132;-76
2023/04/30 03:34:51;;;;;;;11.48;6.03;;;;;;;;;;5011846;28;20104;-77
2023/04/30 03:37:17;;;;;;;13.77;6.57;;;;;;;;;;5008553;28;20581;-76
2023/04/30 03:39:44;;;;;;;11.55;6.07;;;;;;;;;;5008425;28;20058;-76
2023/04/30 03:42:10;;;;;;;12.43;6.00;;;;;;;;;;5009545;28;20510;-77
2023/04/30 03:44:37;;;;;;;12.55;6.10;;;;;;;;;;5008214;28;20054;-77
2023/04/30 03:47:04;;;;;;;12.02;6.05;;;;;;;;;;5009234;28;20062;-76
2023/04/30 03:49:30;;;;;;;12.95;5.95;;;;;;;;;;5007958;28;20050;-76
2023/04/30 03:51:57;;;;;;;12.90;6.53;;;;;;;;;;5007814;28;20050;-77
2023/04/30 03:54:23;;;;;;;12.15;6.35;;;;;;;;;;5009918;28;20137;-75
2023/04/30 03:56:49;;;;;;;11.60;5.63;;;;;;;;;;5007589;28;20062;-76
2023/04/30 03:59:16;;;;;;;11.50;5.38;;;;;;;;;;5009248;28;20061;-76
2023/04/30 04:01:42;;;;;;;13.93;7.20;;;;;;;;;;5008613;28;20054;-77
2023/04/30 04:04:09;;;;;;;10.35;5.90;;;;;;;;;;5008095;28;20050;-76
2023/04/30 04:06:36;;;;;;;13.88;6.88;;;;;;;;;;5008937;28;20144;-76
2023/04/30 04:09:03;;;;;;;11.15;6.57;;;;;;;;;;5009513;28;20054;-75
2023/04/30 04:11:29;;;;;;;11.38;6.45;;;;;;;;;;5008680;28;20054;-76
2023/04/30 04:13:56;;;;;;;11.73;6.18;;;;;;;;;;5009270;28;20512;-77
2023/04/30 04:16:22;;;;;;;13.68;6.43;;;;;;;;;;5011209;28;20084;-76
2023/04/30 04:18:48;;;;;;;12.10;5.75;;;;;;;;;;5008623;28;20173;-75
2023/04/30 04:21:15;;;;;;;12.02;6.05;;;;;;;;;;5006492;28;20519;-77
2023/04/30 04:23:41;;;;;;;11.90;5.55;;;;;;;;;;5007402;28;20055;-77
2023/04/30 04:26:09;;;;;;;12.48;5.95;;;;;;;;;;5007903;28;20058;-76
2023/04/30 04:28:36;;;;;;;14.50;5.70;;;;;;;;;;5008329;28;20062;-76
2023/04/30 04:31:03;;;;;;;13.75;6.32;;;;;;;;;;5008302;28;20056;-76
2023/04/30 04:33:29;;;;;;;13.50;6.30;;;;;;;;;;5011581;28;20101;-76
2023/04/30 04:35:56;;;;;;;13.15;6.55;;;;;;;;;;5011599;28;20089;-75
2023/04/30 04:38:23;;;;;;;12.07;6.60;;;;;;;;;;5006758;28;20487;-76
2023/04/30 04:40:51;;;;;;;12.48;6.72;;;;;;;;;;5008138;28;20442;-76
2023/04/30 04:43:17;;;;;;;12.10;6.82;;;;;;;;;;5003781;28;20529;-77
2023/04/30 04:45:43;;;;;;;11.82;6.07;;;;;;;;;;5006161;28;20058;-76
2023/04/30 04:48:10;;;;;;;12.50;6.20;;;;;;;;;;5006033;28;20058;-76
2023/04/30 04:50:36;;;;;;;14.43;7.80;;;;;;;;;;5007711;28;20058;-76
2023/04/30 04:53:02;;;;;;;15.55;6.68;;;;;;;;;;5004814;28;20624;-76
2023/04/30 04:55:29;;;;;;;14.77;7.20;;;;;;;;;;5006021;28;20050;-76
2023/04/30 04:57:55;;;;;;;18.58;6.78;;;;;;;;;;5004971;28;20058;-76
2023/04/30 05:00:22;;;;;;;13.02;6.15;;;;;;;;;;5006207;28;20054;-77
2023/04/30 05:02:48;;;;;;;14.27;6.90;;;;;;;;;;5006671;28;20058;-76
2023/04/30 05:05:15;;;;;;;16.83;7.55;;;;;;;;;;5007870;28;20523;-76
2023/04/30 05:07:41;;;;;;;13.60;7.38;;;;;;;;;;5009177;28;20054;-76
2023/04/30 05:10:08;;;;;;;17.65;7.13;;;;;;;;;;5008444;28;20513;-77
2023/04/30 05:12:34;;;;;;;14.77;7.15;;;;;;;;;;5010590;28;20064;-77
2023/04/30 05:15:00;;;;;;;14.90;7.60;;;;;;;;;;5009515;28;20057;-77
2023/04/30 05:17:27;;;;;;;14.68;7.72;;;;;;;;;;5011946;28;20148;-76
2023/04/30 05:19:53;;;;;;;17.95;9.10;;;;;;;;;;5011577;28;20097;-76
2023/04/30 05:22:20;;;;;;;15.80;7.55;;;;;;;;;;5014649;28;20101;-75
2023/04/30 05:24:47;;;;;;;19.95;8.75;;;;;;;;;;5026700;28;20555;-77
2023/04/30 05:27:13;;;;;;;18.63;8.50;;;;;;;;;;5012441;28;20057;-77
2023/04/30 05:29:39;;;;;;;19.83;10.32;;;;;;;;;;5012970;28;20034;-77
2023/04/30 05:32:06;;;;;;;18.00;10.65;;;;;;;;;;5011751;28;20073;-76
2023/04/30 05:34:35;;;;;;;18.23;9.88;;;;;;;;;;5010795;28;20050;-78
2023/04/30 05:37:02;;;;;;;20.13;9.65;;;;;;;;;;5012524;28;20063;-77
2023/04/30 05:39:29;;;;;;;16.63;8.68;;;;;;;;;;5010130;28;20057;-76
2023/04/30 05:41:55;;;;;;;18.38;9.02;;;;;;;;;;5008280;28;20054;-76
2023/04/30 05:44:21;;;;;;;22.55;9.30;;;;;;;;;;5010158;28;20140;-77
2023/04/30 05:46:48;;;;;;;17.48;9.05;;;;;;;;;;5009189;28;20062;-77
2023/04/30 05:49:14;;;;;;;16.27;8.52;;;;;;;;;;5009640;28;20060;-77
2023/04/30 05:51:41;;;;;;;15.07;7.60;;;;;;;;;;5010147;28;20326;-78
2023/04/30 05:54:07;;;;;;;16.60;8.65;;;;;;;;;;5008747;28;20612;-77
2023/04/30 05:56:33;;;;;;;15.93;8.45;;;;;;;;;;5012537;28;20050;-77
2023/04/30 05:59:00;;;;;;;20.58;8.73;;;;;;;;;;5010745;28;20056;-75
2023/04/30 06:01:28;;;;;;;16.67;8.93;;;;;;;;;;5008255;28;20058;-76
2023/04/30 06:03:54;;;;;;;15.48;8.35;;;;;;;;;;5009272;28;20061;-75
2023/04/30 06:06:21;;;;;;;17.25;7.75;;;;;;;;;;5008438;28;20181;-77
2023/04/30 06:08:47;;;;;;;13.70;7.93;;;;;;;;;;5008705;28;20990;-78
2023/04/30 06:11:14;;;;;;;15.18;7.57;;;;;;;;;;5008885;28;20054;-78
2023/04/30 06:13:40;;;;;;;12.45;7.07;;;;;;;;;;5008062;28;20509;-78
2023/04/30 06:16:07;;;;;;;15.27;7.47;;;;;;;;;;5012376;28;20050;-77
2023/04/30 06:18:34;;;;;;;12.60;6.85;;;;;;;;;;5010257;28;21589;-78
2023/04/30 06:21:00;;;;;;;16.50;6.78;;;;;;;;;;5011509;28;20050;-77
2023/04/30 06:23:27;;;;;;;11.52;6.38;;;;;;;;;;5009351;28;20575;-76
2023/04/30 06:25:53;;;;;;;15.48;7.00;;;;;;;;;;5009407;28;21279;-77
2023/04/30 06:28:20;;;;;;;13.15;7.18;;;;;;;;;;5008812;28;20058;-76
2023/04/30 06:30:46;;;;;;;14.18;6.28;;;;;;;;;;5009688;28;20066;-78
2023/04/30 06:33:12;;;;;;;12.05;6.32;;;;;;;;;;5008306;28;20066;-77
2023/04/30 06:35:39;;;;;;;17.52;6.20;;;;;;;;;;5008014;28;20050;-77
2023/04/30 06:38:05;;;;;;;14.68;6.20;;;;;;;;;;5008111;28;20049;-78
2023/04/30 06:40:32;;;;;;;17.00;6.07;;;;;;;;;;5008143;28;20086;-78
2023/04/30 06:42:58;;;;;;;11.60;6.10;;;;;;;;;;5009914;28;20062;-76
2023/04/30 06:45:24;;;;;;;15.70;6.53;;;;;;;;;;5011433;28;20066;-75
2023/04/30 06:47:52;;;;;;;21.65;6.32;;;;;;;;;;5007610;28;20065;-76
2023/04/30 06:50:20;;;;;;;17.70;6.68;;;;;;;;;;5007606;28;20066;-77
2023/04/30 06:52:46;;;;;;;12.13;5.95;;;;;;;;;;5011689;28;20873;-77
2023/04/30 06:55:13;;;;;;;14.45;5.97;;;;;;;;;;5013231;28;20054;-76
2023/04/30 06:57:39;;;;;;;10.00;5.63;;;;;;;;;;5009852;28;20058;-77
2023/04/30 07:00:06;;;;;;;13.43;6.05;;;;;;;;;;5010045;28;20061;-77
2023/04/30 07:02:32;;;;;;;15.32;6.88;;;;;;;;;;5007070;28;20261;-76
2023/04/30 07:04:59;;;;;;;11.85;6.80;;;;;;;;;;5012622;28;20061;-77
2023/04/30 07:07:25;;;;;;;13.52;6.25;;;;;;;;;;5010578;28;20058;-79
2023/04/30 07:09:52;;;;;;;12.20;5.80;;;;;;;;;;5010776;28;20715;-77
2023/04/30 07:12:19;;;;;;;11.60;6.13;;;;;;;;;;5007750;28;20050;-77
2023/04/30 07:14:45;;;;;;;13.93;6.32;;;;;;;;;;5011651;28;20050;-78
2023/04/30 07:17:12;;;;;;;11.43;5.50;;;;;;;;;;5006620;28;20531;-77
2023/04/30 07:19:38;;;;;;;10.85;5.82;;;;;;;;;;5011965;28;20538;-75
2023/04/30 07:22:04;;;;;;;14.38;5.97;;;;;;;;;;5008311;28;20527;-77
2023/04/30 07:24:31;;;;;;;12.35;6.07;;;;;;;;;;5014895;28;20128;-76
2023/04/30 07:27:02;;;;;;;11.38;5.60;;;;;;;;;;5007568;28;20137;-76
2023/04/30 07:29:29;;;;;;;10.90;5.55;;;;;;;;;;5007256;28;20588;-76
2023/04/30 07:31:58;;;;;;;14.27;6.07;;;;;;;;;;5009919;28;20061;-76
2023/04/30 07:34:25;;;;;;;11.40;5.45;;;;;;;;;;5005918;28;20595;-77
2023/04/30 07:36:51;;;;;;;13.13;5.97;;;;;;;;;;5006193;28;20421;-76
2023/04/30 07:39:17;;;;;;;10.85;5.82;;;;;;;;;;5009663;28;20062;-76
2023/04/30 07:41:44;;;;;;;9.45;5.45;;;;;;;;;;5010144;28;20058;-78
2023/04/30 07:44:11;;;;;;;11.07;5.70;;;;;;;;;;5013593;28;20080;-78
2023/04/30 07:46:37;;;;;;;9.88;5.05;;;;;;;;;;5011654;28;20055;-76
2023/04/30 07:49:03;;;;;;;11.52;5.80;;;;;;;;;;5009266;28;20057;-77
2023/04/30 07:51:31;;;;;;;9.75;5.05;;;;;;;;;;5011904;28;20149;-77
2023/04/30 07:53:58;;;;;;;12.38;5.63;;;;;;;;;;5009185;28;20053;-76
2023/04/30 07:56:25;;;;;;;11.55;5.70;;;;;;;;;;5009195;28;20136;-76
2023/04/30 07:58:51;;;;;;;9.95;4.93;;;;;;;;;;5008763;28;20066;-76
2023/04/30 08:01:17;;;;;;;10.38;4.72;;;;;;;;;;5011647;28;20144;-77
2023/04/30 08:03:44;;;;;;;10.93;5.40;;;;;;;;;;5009722;28;20054;-75
2023/04/30 08:06:10;;;;;;;8.18;5.30;;;;;;;;;;5009633;28;20057;-77
2023/04/30 08:08:37;;;;;;;10.88;5.00;;;;;;;;;;5007230;28;20142;-75
2023/04/30 08:11:03;;;;;;;10.18;5.13;;;;;;;;;;5010600;28;20065;-76
2023/04/30 08:13:29;;;;;;;8.43;4.85;;;;;;;;;;5009622;28;20492;-76
2023/04/30 08:15:56;;;;;;;7.82;4.45;;;;;;;;;;5010217;28;20050;-76
2023/04/30 08:18:22;;;;;;;16.85;5.00;;;;;;;;;;5010639;28;20101;-77
2023/04/30 08:20:48;;;;;;;8.07;4.32;;;;;;;;;;5010068;28;20939;-77
2023/04/30 08:23:15;;;;;;;7.57;4.05;;;;;;;;;;5017399;28;20100;-78
2023/04/30 08:25:42;;;;;;;8.75;4.75;;;;;;;;;;5018752;28;20104;-76
2023/04/30 08:28:08;;;;;;;9.50;5.00;;;;;;;;;;5011710;28;20841;-77
2023/04/30 08:30:35;;;;;;;9.23;4.38;;;;;;;;;;5015078;28;20050;-78
2023/04/30 08:33:01;;;;;;;8.32;5.03;;;;;;;;;;5023915;28;20521;-79
2023/04/30 08:35:28;;;;;;;9.35;4.93;;;;;;;;;;5024369;28;20070;-79
2023/04/30 08:37:55;;;;;;;8.25;4.80;;;;;;;;;;5043643;28;20602;-78
2023/04/30 08:40:25;;;;;;;7.07;4.30;;;;;;;;;;5019137;28;20041;-79
2023/04/30 08:43:10;;;;;;;8.75;4.20;;;;;;;;;;5021930;28;20058;-78
2023/04/30 08:45:37;;;;;;;8.70;4.25;;;;;;;;;;5027333;28;20042;-76
2023/04/30 08:48:04;;;;;;;9.25;4.70;;;;;;;;;;5025691;28;20207;-79
2023/04/30 08:50:30;;;;;;;9.68;4.53;;;;;;;;;;5030650;28;20068;-79
2023/04/30 08:52:57;;;;;;;6.53;4.35;;;;;;;;;;5022331;28;20082;-78
2023/04/30 08:55:26;;;;;;;8.10;3.92;;;;;;;;;;5020822;28;20052;-77
2023/04/30 08:57:52;;;;;;;8.25;3.85;;;;;;;;;;5025840;28;20151;-78
2023/04/30 09:00:19;;;;;;;9.13;4.18;;;;;;;;;;5013137;28;20051;-79
2023/04/30 09:02:46;;;;;;;6.50;3.53;;;;;;;;;;5012093;28;20582;-77
2023/04/30 09:05:13;;;;;;;7.10;3.20;;;;;;;;;;5017520;28;20053;-78
2023/04/30 09:07:43;;;;;;;7.65;3.75;;;;;;;;;;5029602;28;20046;-77
2023/04/30 09:10:31;;;;;;;7.47;3.45;;;;;;;;;;5009718;28;20054;-78
2023/04/30 09:13:01;;;;;;;7.65;3.22;;;;;;;;;;5026704;28;20188;-78
2023/04/30 09:15:28;;;;;;;6.97;3.35;;;;;;;;;;5016114;28;21083;-78
2023/04/30 09:18:05;;;;;;;6.78;3.63;;;;;;;;;;5023792;28;20065;-77
2023/04/30 09:20:31;;;;;;;9.18;3.75;;;;;;;;;;5026636;28;20101;-78
2023/04/30 09:23:10;;;;;;;7.30;3.22;;;;;;;;;;5032465;28;20053;-78
2023/04/30 09:25:41;;;;;;;5.82;3.33;;;;;;;;;;5022436;28;20554;-77
2023/04/30 09:28:11;;;;;;;6.63;3.28;;;;;;;;;;5020269;28;20061;-77
2023/04/30 09:30:38;;;;;;;6.68;2.95;;;;;;;;;;5017457;28;20660;-78
2023/04/30 09:33:04;;;;;;;9.40;2.97;;;;;;;;;;5007929;28;20085;-77
2023/04/30 09:35:37;;;;;;;6.47;3.00;;;;;;;;;;5013469;28;20053;-76
2023/04/30 09:38:04;;;;;;;8.00;3.25;;;;;;;;;;5018859;28;20053;-77
2023/04/30 09:40:36;;;;;;;6.45;3.00;;;;;;;;;;5024963;28;20535;-76
2023/04/30 09:43:03;;;;;;;5.15;2.83;;;;;;;;;;5018112;28;20054;-77
2023/04/30 09:45:47;;;;;;;7.30;2.97;;;;;;;;;;5014976;28;20058;-77
2023/04/30 09:48:20;;;;;;;6.75;2.83;;;;;;;;;;5003481;28;20085;-78
2023/04/30 09:50:47;;;;;;;6.25;2.90;;;;;;;;;;5015813;28;20148;-77
2023/04/30 09:53:16;;;;;;;6.25;2.88;;;;;;;;;;5003269;28;20132;-76
2023/04/30 09:55:44;;;;;;;5.90;2.83;;;;;;;;;;5005989;28;20142;-77
2023/04/30 09:58:10;;;;;;;6.05;2.95;;;;;;;;;;5014645;28;20058;-77
2023/04/30 10:00:38;;;;;;;6.10;2.65;;;;;;;;;;5018437;28;20517;-77
2023/04/30 10:03:07;;;;;;;4.97;2.50;;;;;;;;;;5015576;28;20135;-76
2023/04/30 10:05:38;;;;;;;4.72;2.60;;;;;;;;;;5006220;28;20054;-77
2023/04/30 10:08:06;;;;;;;5.13;2.45;;;;;;;;;;5003013;28;20046;-76
2023/04/30 10:10:32;;;;;;;5.50;2.70;;;;;;;;;;5016711;28;20532;-77
2023/04/30 10:13:02;;;;;;;4.60;2.50;;;;;;;;;;5022664;28;20053;-77
2023/04/30 10:15:34;;;;;;;5.15;2.65;;;;;;;;;;5023373;28;20057;-77
2023/04/30 10:18:01;;;;;;;6.85;2.63;;;;;;;;;;5010536;28;20066;-77
2023/04/30 10:20:29;;;;;;;4.90;2.40;;;;;;;;;;5021237;28;20081;-79
2023/04/30 10:22:55;;;;;;;6.35;2.38;;;;;;;;;;5022367;28;20054;-76
2023/04/30 10:25:22;;;;;;;4.13;2.05;;;;;;;;;;5018736;28;20571;-77
2023/04/30 10:27:49;;;;;;;5.65;2.53;;;;;;;;;;5002636;28;20058;-76
2023/04/30 10:30:16;;;;;;;5.00;2.17;;;;;;;;;;5016180;28;20053;-74
2023/04/30 10:32:48;;;;;;;7.30;3.05;;;;;;;;;;5019417;28;20140;-74
2023/04/30 10:35:18;;;;;;;5.43;2.40;;;;;;;;;;5013811;28;20053;-74
2023/04/30 10:37:47;;;;;;;4.88;2.30;;;;;;;;;;5021584;28;20054;-75
2023/04/30 10:40:14;;;;;;;5.03;2.65;;;;;;;;;;5034754;28;20176;-74
2023/04/30 10:42:52;;;;;;;4.68;2.28;;;;;;;;;;5027641;28;20489;-74
2023/04/30 10:45:33;;;;;;;5.68;2.90;;;;;;;;;;5004971;28;20060;-75
2023/04/30 10:48:00;;;;;;;5.05;2.50;;;;;;;;;;5003292;28;20956;-75
2023/04/30 10:50:28;;;;;;;7.32;2.97;;;;;;;;;;5008895;28;20143;-73
2023/04/30 10:53:04;;;;;;;5.60;3.00;;;;;;;;;;5013669;28;20060;-76
2023/04/30 10:55:31;;;;;;;8.07;3.03;;;;;;;;;;5009442;28;20557;-76
2023/04/30 10:57:57;;;;;;;7.60;3.50;;;;;;;;;;5008865;28;20133;-77
2023/04/30 11:00:25;;;;;;;5.88;2.65;;;;;;;;;;5009429;28;20606;-77
2023/04/30 11:02:54;;;;;;;5.32;2.20;;;;;;;;;;5020321;28;20089;-77
2023/04/30 11:05:32;;;;;;;4.68;2.38;;;;;;;;;;5025289;28;20127;-77
2023/04/30 11:07:58;;;;;;;6.82;3.08;;;;;;;;;;5026624;28;20054;-78
2023/04/30 11:10:25;;;;;;;6.18;2.90;;;;;;;;;;5026898;28;20640;-77
2023/04/30 11:12:53;;;;;;;8.35;2.72;;;;;;;;;;5006949;28;20076;-77
2023/04/30 11:15:21;;;;;;;4.70;2.50;;;;;;;;;;5018354;28;20476;-77
2023/04/30 11:17:48;;;;;;;6.40;2.95;;;;;;;;;;5022138;28;20970;-77
2023/04/30 11:20:22;;;;;;;4.93;2.63;;;;;;;;;;5025412;28;20061;-77
2023/04/30 11:23:06;;;;;;;7.50;2.60;;;;;;;;;;5032962;28;20062;-77
2023/04/30 11:25:40;;;;;;;8.05;2.72;;;;;;;;;;5022551;28;20146;-75
2023/04/30 11:28:07;;;;;;;5.38;2.60;;;;;;;;;;5010587;28;20084;-76
2023/04/30 11:30:34;;;;;;;5.57;2.67;;;;;;;;;;5018738;28;20101;-77
2023/04/30 11:33:01;;;;;;;6.72;2.70;;;;;;;;;;5007308;28;20053;-78
2023/04/30 11:35:27;;;;;;;6.65;2.97;;;;;;;;;;5022658;28;20054;-73
2023/04/30 11:37:54;;;;;;;6.80;2.80;;;;;;;;;;5028249;28;20177;-77
2023/04/30 11:40:21;;;;;;;9.10;2.50;;;;;;;;;;5018762;28;20066;-73
2023/04/30 11:42:47;;;;;;;5.10;2.60;;;;;;;;;;5018904;28;20061;-73
2023/04/30 11:45:19;;;;;;;6.18;2.50;;;;;;;;;;5022073;28;20538;-73
2023/04/30 11:47:50;;;;;;;6.32;2.30;;;;;;;;;;5013676;28;20061;-74
2023/04/30 11:50:18;;;;;;;6.20;2.67;;;;;;;;;;5018379;28;20062;-74
2023/04/30 11:52:48;;;;;;;4.57;2.28;;;;;;;;;;5010514;28;20123;-77
2023/04/30 11:55:15;;;;;;;5.68;2.72;;;;;;;;;;5017099;28;20085;-74
2023/04/30 11:57:43;;;;;;;6.72;2.40;;;;;;;;;;5024399;28;20425;-72
2023/04/30 12:00:13;;;;;;;6.43;2.47;;;;;;;;;;5014673;28;20196;-76
2023/04/30 12:02:44;;;;;;;6.75;2.67;;;;;;;;;;5015833;28;20074;-73
2023/04/30 12:05:12;;;;;;;6.40;2.13;;;;;;;;;;5018111;28;20058;-73
2023/04/30 12:07:38;;;;;;;5.25;2.67;;;;;;;;;;5018704;28;20554;-73
2023/04/30 12:10:05;;;;;;;5.28;2.30;;;;;;;;;;5011864;28;21024;-73
2023/04/30 12:12:35;;;;;;;5.70;2.35;;;;;;;;;;5015411;28;20057;-73
2023/04/30 12:15:09;;;;;;;5.47;2.42;;;;;;;;;;5022066;28;20050;-76
2023/04/30 12:17:36;;;;;;;4.97;2.25;;;;;;;;;;5020920;28;20060;-74
2023/04/30 12:20:04;;;;;;;5.53;2.40;;;;;;;;;;5022982;28;20062;-74
2023/04/30 12:22:30;;;;;;;4.18;2.10;;;;;;;;;;5023288;28;20145;-76
2023/04/30 12:24:58;;;;;;;3.95;2.08;;;;;;;;;;5032870;28;20081;-73
2023/04/30 12:27:24;;;;;;;4.70;2.10;;;;;;;;;;5027084;28;20157;-73
2023/04/30 12:29:53;;;;;;;6.57;2.50;;;;;;;;;;5020410;28;20527;-76
2023/04/30 12:32:20;;;;;;;4.32;2.50;;;;;;;;;;5014672;28;20942;-74
2023/04/30 12:34:48;;;;;;;4.28;2.03;;;;;;;;;;5013659;28;20053;-74
2023/04/30 12:37:15;;;;;;;4.28;2.33;;;;;;;;;;5014574;28;20962;-73
2023/04/30 12:39:42;;;;;;;4.13;2.25;;;;;;;;;;5017885;28;20063;-73
2023/04/30 12:42:09;;;;;;;5.00;2.10;;;;;;;;;;5041245;28;20049;-76
2023/04/30 12:44:43;;;;;;;4.65;2.13;;;;;;;;;;5026915;28;20171;-77
2023/04/30 12:47:09;;;;;;;6.18;2.47;;;;;;;;;;5022736;28;20543;-74
2023/04/30 12:49:36;;;;;;;5.00;2.35;;;;;;;;;;5019185;28;20053;-74
2023/04/30 12:52:06;;;;;;;8.07;2.28;;;;;;;;;;5025600;28;20060;-74
2023/04/30 12:54:33;;;;;;;4.47;1.90;;;;;;;;;;5022547;28;20085;-74
2023/04/30 12:57:01;;;;;;;4.90;2.05;;;;;;;;;;5014197;28;20080;-74
2023/04/30 12:59:28;;;;;;;4.38;2.25;;;;;;;;;;5026236;28;20058;-74
2023/04/30 13:02:03;;;;;;;5.40;2.30;;;;;;;;;;5034643;28;20583;-73
2023/04/30 13:04:30;;;;;;;4.13;2.17;;;;;;;;;;5040768;28;20060;-76
2023/04/30 13:06:57;;;;;;;3.80;2.00;;;;;;;;;;5045144;28;20053;-74
2023/04/30 13:09:23;;;;;;;4.93;2.20;;;;;;;;;;5024503;28;21088;-75
2023/04/30 13:11:49;;;;;;;5.07;2.10;;;;;;;;;;5023003;28;20057;-73
2023/04/30 13:14:16;;;;;;;5.10;2.08;;;;;;;;;;5025685;28;20611;-74
2023/04/30 13:16:43;;;;;;;4.65;2.10;;;;;;;;;;5015851;28;20060;-75
2023/04/30 13:19:10;;;;;;;4.60;2.00;;;;;;;;;;5028922;28;20139;-74
2023/04/30 13:21:36;;;;;;;5.50;2.00;;;;;;;;;;5036738;28;20050;-74
2023/04/30 13:24:02;;;;;;;6.25;2.10;;;;;;;;;;5043437;28;20057;-73
2023/04/30 13:26:29;;;;;;;5.00;1.77;;;;;;;;;;5007183;28;20165;-73
2023/04/30 13:28:55;;;;;;;4.93;2.00;;;;;;;;;;5009585;28;20698;-76
2023/04/30 13:31:22;;;;;;;5.80;2.00;;;;;;;;;;5006009;28;20158;-74
2023/04/30 13:33:48;;;;;;;4.38;1.77;;;;;;;;;;5028637;28;20265;-73
2023/04/30 13:36:15;;;;;;;5.50;1.85;;;;;;;;;;5021492;28;20081;-73
2023/04/30 13:38:41;;;;;;;4.90;1.90;;;;;;;;;;5020275;28;20058;-73
2023/04/30 13:41:08;;;;;;;4.10;1.50;;;;;;;;;;5016370;28;20054;-73
2023/04/30 13:43:37;;;;;;;4.60;1.52;;;;;;;;;;5025928;28;20512;-73
2023/04/30 13:46:07;;;;;;;4.00;1.40;;;;;;;;;;5016739;28;20058;-75
2023/04/30 13:48:34;;;;;;;4.47;1.45;;;;;;;;;;5018746;28;20049;-73
2023/04/30 13:51:00;;;;;;;3.63;1.25;;;;;;;;;;5024830;28;20100;-73
2023/04/30 13:53:27;;;;;;;5.53;1.40;;;;;;;;;;5024354;28;20062;-75
2023/04/30 13:55:53;;;;;;;3.33;1.13;;;;;;;;;;5025574;28;20061;-74
2023/04/30 13:58:20;;;;;;;3.47;1.30;;;;;;;;;;5025752;28;20053;-74
2023/04/30 14:00:46;;;;;;;3.60;1.30;;;;;;;;;;5021855;28;20054;-76
2023/04/30 14:03:13;;;;;;;4.47;1.35;;;;;;;;;;5025555;28;20054;-76
2023/04/30 14:05:40;;;;;;;3.83;1.23;;;;;;;;;;5025345;28;20108;-76
2023/04/30 14:08:06;;;;;;;4.15;1.40;;;;;;;;;;5007252;28;20047;-76
2023/04/30 14:10:32;;;;;;;3.38;1.10;;;;;;;;;;5022029;28;20057;-76
2023/04/30 14:12:59;;;;;;;5.95;1.50;;;;;;;;;;5027601;28;20062;-76
2023/04/30 14:15:26;;;;;;;3.85;1.20;;;;;;;;;;5018244;28;20058;-76
2023/04/30 14:17:52;;;;;;;5.00;1.25;;;;;;;;;;5016295;28;20077;-77
2023/04/30 14:20:19;;;;;;;3.67;1.30;;;;;;;;;;5018752;28;20056;-77
2023/04/30 14:22:48;;;;;;;3.03;1.20;;;;;;;;;;5023974;28;20062;-75
2023/04/30 14:25:15;;;;;;;3.58;1.20;;;;;;;;;;5019162;28;20448;-76
2023/04/30 14:27:41;;;;;;;4.22;1.20;;;;;;;;;;5023191;28;20050;-76
2023/04/30 14:30:09;;;;;;;3.05;1.00;;;;;;;;;;5005275;28;20090;-76
2023/04/30 14:32:36;;;;;;;4.32;1.52;;;;;;;;;;5019519;28;20077;-77
2023/04/30 14:35:03;;;;;;;3.72;1.35;;;;;;;;;;5025825;28;20137;-76
2023/04/30 14:37:30;;;;;;;2.80;1.10;;;;;;;;;;5023744;28;20203;-77
2023/04/30 14:39:57;;;;;;;3.42;1.20;;;;;;;;;;5024148;28;20057;-75